Time;durP1;ratioP1;P1;durP2;ratioP2;P2;SDS_P1;SDS_P2;PMS_P1;PMS_P2;Temp;Humidity;BMP_temperature;BMP_pressure;BME280_temperature;BME280_humidity;BME280_pressure;Samples;Min_cycle;Max_cycle;Signal;HPM_P1;HPM_P2
2022/10/10 00:00:05;;;;;;;33.67;17.20;;;;;;;-141.28;100.00;48419.00;5079426;28;20214;-76
2022/10/10 00:02:33;;;;;;;22.30;15.00;;;;;;;-141.28;100.00;48403.31;5092834;28;20239;-77
2022/10/10 00:05:00;;;;;;;33.63;16.80;;;;;;;-141.28;100.00;48393.50;5093835;28;20214;-76
2022/10/10 00:07:27;;;;;;;24.17;16.30;;;;;;;-141.28;100.00;48395.47;5095717;28;20208;-75
2022/10/10 00:09:54;;;;;;;23.47;16.27;;;;;;;-141.28;100.00;48391.53;5093092;28;20208;-78
2022/10/10 00:12:21;;;;;;;23.73;16.17;;;;;;;-141.28;100.00;48411.16;5092609;28;20645;-77
2022/10/10 00:14:51;;;;;;;19.13;15.60;;;;;;;-141.28;100.00;48395.47;5093433;28;20286;-76
2022/10/10 00:17:18;;;;;;;23.73;14.73;;;;;;;-141.28;100.00;48422.94;5091207;28;20203;-77
2022/10/10 00:19:46;;;;;;;17.40;15.13;;;;;;;-141.28;100.00;48411.16;5078203;28;20208;-76
2022/10/10 00:22:13;;;;;;;20.27;14.57;;;;;;;-141.28;100.00;48438.63;5095262;28;20230;-75
2022/10/10 00:24:41;;;;;;;19.47;14.70;;;;;;;-141.28;100.00;48473.94;5093682;28;20199;-76
2022/10/10 00:27:09;;;;;;;18.67;13.57;;;;;;;-141.28;100.00;48477.84;5093171;28;20694;-76
2022/10/10 00:29:36;;;;;;;16.60;13.57;;;;;;;-141.28;100.00;48475.88;5093074;28;20572;-75
2022/10/10 00:32:04;;;;;;;19.00;13.13;;;;;;;-141.28;100.00;48493.53;5092340;28;20215;-77
2022/10/10 00:34:32;;;;;;;19.03;12.93;;;;;;;-141.28;100.00;48501.41;5092668;28;20192;-78
2022/10/10 00:37:01;;;;;;;19.93;13.53;;;;;;;-141.28;100.00;48505.31;5092762;28;20658;-76
2022/10/10 00:39:27;;;;;;;15.80;12.90;;;;;;;-141.28;100.00;48548.47;5092557;28;20223;-76
2022/10/10 00:41:54;;;;;;;17.07;12.33;;;;;;;-141.28;100.00;48560.25;5091752;28;20233;-76
2022/10/10 00:44:22;;;;;;;18.83;12.67;;;;;;;-141.28;100.00;48581.81;5091885;28;20594;-76
2022/10/10 00:46:50;;;;;;;15.47;12.87;;;;;;;-141.28;100.00;48603.41;5091588;28;20208;-77
2022/10/10 00:49:22;;;;;;;16.43;13.10;;;;;;;-141.28;100.00;48597.53;5091045;28;20295;-77
2022/10/10 00:51:52;;;;;;;17.33;12.57;;;;;;;-141.28;100.00;48607.31;5092046;28;20202;-75
2022/10/10 00:54:23;;;;;;;16.43;12.87;;;;;;;-141.28;100.00;48666.19;5092023;28;20200;-76
2022/10/10 00:56:52;;;;;;;18.83;12.27;;;;;;;-141.28;100.00;48705.41;5091588;28;20596;-76
2022/10/10 00:59:20;;;;;;;18.87;13.20;;;;;;;-141.28;100.00;48727.00;5091990;28;20227;-77
2022/10/10 01:01:47;;;;;;;15.73;12.93;;;;;;;-141.28;100.00;48748.56;5092131;28;20200;-75
2022/10/10 01:04:29;;;;;;;15.83;12.10;;;;;;;-141.28;100.00;48807.44;5092029;28;20715;-76
2022/10/10 01:06:58;;;;;;;15.93;11.50;;;;;;;-141.28;100.00;48803.50;5076559;28;20196;-75
2022/10/10 01:09:27;;;;;;;15.33;12.13;;;;;;;-141.28;100.00;48846.69;5088588;28;20199;-76
2022/10/10 01:12:02;;;;;;;18.67;12.53;;;;;;;-141.28;100.00;48870.22;5092295;28;20227;-75
2022/10/10 01:14:39;;;;;;;18.07;12.87;;;;;;;-141.28;100.00;48897.69;5091876;28;20557;-77
2022/10/10 01:17:14;;;;;;;17.57;12.23;;;;;;;-141.28;100.00;48897.69;5090258;28;20214;-76
2022/10/10 01:20:22;;;;;;;15.90;12.27;;;;;;;-141.28;100.00;48927.13;5080133;28;20203;-76
2022/10/10 01:23:06;;;;;;;16.00;12.90;;;;;;;-141.28;100.00;48917.31;5078153;28;20234;-76
2022/10/10 01:25:50;;;;;;;18.27;13.70;;;;;;;-141.28;100.00;48905.53;5092465;28;20195;-75
2022/10/10 01:28:29;;;;;;;20.63;14.87;;;;;;;-141.28;100.00;48893.75;5094610;28;20208;-75
2022/10/10 01:30:58;;;;;;;22.40;16.40;;;;;;;-141.28;100.00;48909.47;5092802;28;20203;-77
2022/10/10 01:33:33;;;;;;;21.50;17.07;;;;;;;-141.28;100.00;48897.69;5091648;28;20265;-76
2022/10/10 01:36:07;;;;;;;24.57;18.07;;;;;;;-141.28;100.00;48944.78;5091521;28;20202;-76
2022/10/10 01:38:41;;;;;;;25.07;18.50;;;;;;;-141.28;100.00;48940.84;5091675;28;20211;-77
2022/10/10 01:41:13;;;;;;;27.03;18.70;;;;;;;-141.28;100.00;48999.72;5091521;28;20203;-76
2022/10/10 01:43:43;;;;;;;25.13;19.30;;;;;;;-141.28;100.00;48887.88;5099769;28;20219;-77
2022/10/10 01:46:12;;;;;;;25.03;19.80;;;;;;;-141.28;100.00;48960.47;5090752;28;20674;-77
2022/10/10 01:48:40;;;;;;;27.97;19.43;;;;;;;-141.28;100.00;48974.19;5091745;28;20639;-76
2022/10/10 01:51:28;;;;;;;27.40;19.30;;;;;;;-141.28;100.00;48976.16;5091728;28;20211;-76
2022/10/10 01:54:13;;;;;;;29.47;18.37;;;;;;;-141.28;100.00;48938.88;5091435;28;20283;-79
2022/10/10 01:56:48;;;;;;;26.63;17.97;;;;;;;-141.28;100.00;48952.63;5104486;28;20198;-78
2022/10/10 01:59:35;;;;;;;28.73;18.43;;;;;;;-141.28;100.00;48936.91;5103932;28;20218;-76
2022/10/10 02:02:08;;;;;;;21.80;16.87;;;;;;;-141.28;100.00;48940.84;5091202;28;20199;-76
2022/10/10 02:04:43;;;;;;;20.90;17.53;;;;;;;-141.28;100.00;48917.31;5091111;28;20231;-75
2022/10/10 02:07:17;;;;;;;25.70;17.97;;;;;;;-141.28;100.00;48913.38;5090967;28;20199;-76
2022/10/10 02:09:47;;;;;;;23.57;17.23;;;;;;;-141.28;100.00;48929.06;5103221;28;20234;-76
2022/10/10 02:12:15;;;;;;;20.30;17.00;;;;;;;-141.28;100.00;48936.91;5091410;28;20195;-76
2022/10/10 02:14:48;;;;;;;22.50;16.87;;;;;;;-141.28;100.00;48854.53;5093683;28;20210;-76
2022/10/10 02:17:16;;;;;;;24.87;17.63;;;;;;;-141.28;100.00;48917.31;5092411;28;20214;-75
2022/10/10 02:19:47;;;;;;;30.10;17.93;;;;;;;-141.28;100.00;48889.84;5085777;28;20200;-75
2022/10/10 02:22:14;;;;;;;21.13;16.70;;;;;;;-141.28;100.00;48915.34;5091382;28;20743;-76
2022/10/10 02:24:43;;;;;;;23.23;16.23;;;;;;;-141.28;100.00;48956.53;5090855;28;20253;-77
2022/10/10 02:27:14;;;;;;;20.50;15.77;;;;;;;-141.28;100.00;48934.97;5093747;28;20204;-76
2022/10/10 02:29:48;;;;;;;20.17;15.60;;;;;;;-141.28;100.00;48942.81;5103613;28;20206;-77
2022/10/10 02:32:22;;;;;;;21.60;16.10;;;;;;;-141.28;100.00;48929.06;5090975;28;20218;-76
2022/10/10 02:34:54;;;;;;;23.50;17.23;;;;;;;-141.28;100.00;48948.69;5091071;28;20214;-77
2022/10/10 02:37:22;;;;;;;21.37;16.13;;;;;;;-141.28;100.00;48944.78;5090756;28;20203;-78
2022/10/10 02:39:53;;;;;;;24.10;15.23;;;;;;;-141.28;100.00;48958.50;5090743;28;20247;-75
2022/10/10 02:42:23;;;;;;;18.27;14.77;;;;;;;-141.28;100.00;48960.47;5091091;28;20214;-76
2022/10/10 02:44:51;;;;;;;21.50;14.17;;;;;;;-141.28;100.00;48976.16;5104731;28;20203;-75
2022/10/10 02:47:19;;;;;;;21.67;14.67;;;;;;;-141.28;100.00;48991.84;5096070;28;20200;-76
2022/10/10 02:49:46;;;;;;;20.53;13.60;;;;;;;-141.28;100.00;48995.78;5094536;28;20290;-77
2022/10/10 02:52:15;;;;;;;18.30;12.83;;;;;;;-141.28;100.00;48999.72;5094708;28;20648;-77
2022/10/10 02:54:43;;;;;;;20.33;13.40;;;;;;;-141.28;100.00;49007.56;5094779;28;20200;-76
2022/10/10 02:57:11;;;;;;;20.60;15.47;;;;;;;-141.28;100.00;49019.31;5109943;28;20202;-75
2022/10/10 02:59:38;;;;;;;17.83;13.77;;;;;;;-141.28;100.00;49009.50;5114566;28;20226;-76
2022/10/10 03:02:07;;;;;;;18.13;14.27;;;;;;;-141.28;100.00;49015.41;5111617;28;20198;-77
2022/10/10 03:04:34;;;;;;;17.30;13.53;;;;;;;-141.28;100.00;49015.41;5104087;28;21110;-75
2022/10/10 03:07:02;;;;;;;18.70;14.87;;;;;;;-141.28;100.00;49036.97;5097321;28;20302;-75
2022/10/10 03:09:29;;;;;;;23.43;15.23;;;;;;;-141.28;100.00;49023.25;5081448;28;20200;-75
2022/10/10 03:11:56;;;;;;;24.37;15.57;;;;;;;-141.28;100.00;49038.94;5076086;28;20220;-76
2022/10/10 03:14:23;;;;;;;22.03;15.57;;;;;;;-141.28;100.00;49048.75;5075196;28;20608;-76
2022/10/10 03:16:50;;;;;;;21.30;14.43;;;;;;;-141.28;100.00;49062.50;5077537;28;20199;-75
2022/10/10 03:19:18;;;;;;;20.13;14.57;;;;;;;-141.28;100.00;49066.41;5085722;28;20203;-76
2022/10/10 03:21:45;;;;;;;31.13;16.13;;;;;;;-141.28;100.00;49093.88;5094004;28;20716;-75
2022/10/10 03:24:12;;;;;;;25.97;15.17;;;;;;;-141.28;100.00;49113.50;5083900;28;20277;-77
2022/10/10 03:26:40;;;;;;;26.87;15.67;;;;;;;-141.28;100.00;49125.28;5088500;28;20236;-77
2022/10/10 03:29:07;;;;;;;24.00;16.80;;;;;;;-141.28;100.00;49137.06;5093687;28;20199;-77
2022/10/10 03:31:34;;;;;;;22.63;15.07;;;;;;;-141.28;100.00;49129.19;5091855;28;20268;-77
2022/10/10 03:34:01;;;;;;;22.20;15.90;;;;;;;-141.28;100.00;49192.00;5093800;28;20203;-77
2022/10/10 03:36:30;;;;;;;29.93;16.27;;;;;;;-141.28;100.00;49139.00;5098233;28;20651;-76
2022/10/10 03:38:57;;;;;;;34.87;18.67;;;;;;;-141.28;100.00;49144.91;5091139;28;20345;-75
2022/10/10 03:41:24;;;;;;;34.60;17.00;;;;;;;-141.28;100.00;49166.47;5104452;28;20222;-77
2022/10/10 03:43:52;;;;;;;38.17;17.07;;;;;;;-141.28;100.00;49184.13;5097236;28;20228;-76
2022/10/10 03:46:19;;;;;;;28.83;17.43;;;;;;;-141.28;100.00;49188.06;5093468;28;20242;-78
2022/10/10 03:48:46;;;;;;;29.10;16.87;;;;;;;-141.28;100.00;49156.66;5086247;28;20215;-76
2022/10/10 03:51:14;;;;;;;29.90;17.40;;;;;;;-141.28;100.00;49054.66;5093260;28;20199;-76
2022/10/10 03:53:42;;;;;;;33.37;17.00;;;;;;;-141.28;100.00;49227.31;5087142;28;20235;-78
2022/10/10 03:56:09;;;;;;;40.23;17.73;;;;;;;-141.28;100.00;49231.22;5085440;28;20257;-77
2022/10/10 03:58:36;;;;;;;35.50;17.50;;;;;;;-141.28;100.00;49262.63;5093104;28;20231;-74
2022/10/10 04:01:05;;;;;;;26.63;17.67;;;;;;;-141.28;100.00;49278.31;5090489;28;20634;-75
2022/10/10 04:03:32;;;;;;;30.97;19.30;;;;;;;-141.28;100.00;49129.19;5092713;28;20230;-78
2022/10/10 04:05:59;;;;;;;30.50;20.40;;;;;;;-141.28;100.00;49262.63;5093245;28;20204;-76
2022/10/10 04:08:28;;;;;;;38.20;20.20;;;;;;;-141.28;100.00;49270.47;5092796;28;20203;-77
2022/10/10 04:10:57;;;;;;;30.10;20.73;;;;;;;-141.28;100.00;49254.78;5100149;28;20261;-76
2022/10/10 04:13:26;;;;;;;35.47;20.93;;;;;;;-141.28;100.00;49301.88;5092768;28;20662;-75
2022/10/10 04:15:55;;;;;;;34.63;21.20;;;;;;;-141.28;100.00;49286.16;5086313;28;20200;-79
2022/10/10 04:18:23;;;;;;;29.90;21.70;;;;;;;-141.28;100.00;49321.50;5083976;28;20221;-77
2022/10/10 04:20:50;;;;;;;33.23;20.17;;;;;;;-141.28;100.00;49309.72;5087738;28;20208;-77
2022/10/10 04:23:18;;;;;;;35.77;20.80;;;;;;;-141.28;100.00;49313.66;5096725;28;20235;-76
2022/10/10 04:25:46;;;;;;;41.37;20.37;;;;;;;-141.28;100.00;49286.16;5095937;28;20206;-75
2022/10/10 04:28:16;;;;;;;35.63;20.60;;;;;;;-141.28;100.00;49345.03;5094001;28;20682;-76
2022/10/10 04:30:43;;;;;;;33.17;20.03;;;;;;;-141.28;100.00;49337.19;5094123;28;20304;-76
2022/10/10 04:33:11;;;;;;;35.13;19.90;;;;;;;-141.28;100.00;49348.97;5084469;28;20210;-76
2022/10/10 04:35:38;;;;;;;30.80;19.77;;;;;;;-141.28;100.00;49341.13;5086813;28;20204;-76
2022/10/10 04:38:06;;;;;;;28.47;19.23;;;;;;;-141.28;100.00;49364.66;5085086;28;20203;-77
2022/10/10 04:40:33;;;;;;;38.43;19.27;;;;;;;-141.28;100.00;49274.41;5092008;28;20306;-78
2022/10/10 04:43:00;;;;;;;41.17;19.47;;;;;;;-141.28;100.00;49243.00;5092807;28;20207;-77
2022/10/10 04:45:29;;;;;;;35.60;19.53;;;;;;;-141.28;100.00;49380.34;5078578;28;20223;-78
2022/10/10 04:47:57;;;;;;;30.23;18.23;;;;;;;-141.28;100.00;49378.41;5097351;28;20199;-78
2022/10/10 04:50:26;;;;;;;31.83;19.07;;;;;;;-141.28;100.00;49364.66;5090469;28;20332;-78
2022/10/10 04:52:53;;;;;;;31.23;19.23;;;;;;;-141.28;100.00;49398.03;5089150;28;20286;-77
2022/10/10 04:55:20;;;;;;;41.70;19.47;;;;;;;-141.28;100.00;49429.41;5087491;28;20203;-77
2022/10/10 04:57:47;;;;;;;48.83;19.87;;;;;;;-141.28;100.00;49411.75;5089763;28;20211;-76
2022/10/10 05:00:15;;;;;;;29.60;18.50;;;;;;;-141.28;100.00;49419.59;5090030;28;20195;-77
2022/10/10 05:02:44;;;;;;;46.63;19.73;;;;;;;-141.28;100.00;49447.06;5090991;28;20662;-77
2022/10/10 05:05:11;;;;;;;44.67;19.63;;;;;;;-141.28;100.00;49466.69;5090325;28;20263;-78
2022/10/10 05:07:38;;;;;;;47.03;20.43;;;;;;;-141.28;100.00;49470.63;5092205;28;20678;-78
2022/10/10 05:10:06;;;;;;;44.97;19.63;;;;;;;-141.28;100.00;49476.50;5079828;28;20196;-76
2022/10/10 05:12:34;;;;;;;34.50;19.03;;;;;;;-141.28;100.00;49500.06;5074842;28;20196;-77
2022/10/10 05:15:01;;;;;;;32.33;19.57;;;;;;;-141.28;100.00;49515.75;5073595;28;20200;-76
2022/10/10 05:17:28;;;;;;;29.67;20.40;;;;;;;-141.28;100.00;49541.25;5072332;28;20200;-76
2022/10/10 05:19:57;;;;;;;39.37;20.00;;;;;;;-141.28;100.00;49535.38;5087154;28;20199;-76
2022/10/10 05:22:26;;;;;;;36.17;19.10;;;;;;;-141.28;100.00;49533.41;5088159;28;20698;-78
2022/10/10 05:24:53;;;;;;;38.80;18.97;;;;;;;-141.28;100.00;49435.31;5091610;28;20276;-77
2022/10/10 05:27:21;;;;;;;37.47;18.50;;;;;;;-141.28;100.00;49345.03;5087892;28;20591;-76
2022/10/10 05:29:49;;;;;;;31.10;16.80;;;;;;;-141.28;100.00;49670.78;5077750;28;20626;-80
2022/10/10 05:32:16;;;;;;;30.80;14.90;;;;;;;-141.28;100.00;49747.31;5089095;28;20208;-76
2022/10/10 05:34:43;;;;;;;33.67;14.90;;;;;;;-141.28;100.00;49806.19;5094580;28;20215;-76
2022/10/10 05:37:12;;;;;;;31.27;14.40;;;;;;;-141.28;100.00;49941.59;5095777;28;20200;-77
2022/10/10 05:39:39;;;;;;;23.20;14.13;;;;;;;-141.28;100.00;50181.03;5088475;28;21717;-78
2022/10/10 05:42:06;;;;;;;26.30;16.20;;;;;;;-141.28;100.00;50365.53;5087917;28;20716;-76
2022/10/10 05:44:35;;;;;;;37.20;15.27;;;;;;;-141.28;100.00;50247.78;5105110;28;20237;-75
2022/10/10 05:47:03;;;;;;;25.57;16.83;;;;;;;-141.28;100.00;50306.66;5070701;28;20216;-76
2022/10/10 05:49:30;;;;;;;27.57;14.40;;;;;;;-141.28;100.00;50355.72;5087935;28;20214;-76
2022/10/10 05:51:58;;;;;;;29.53;14.67;;;;;;;-141.28;100.00;50355.72;5091081;28;20195;-78
2022/10/10 05:54:27;;;;;;;24.30;13.63;;;;;;;-141.28;100.00;50289.00;5091531;28;20260;-76
2022/10/10 05:56:54;;;;;;;17.93;13.43;;;;;;;-141.28;100.00;50196.75;5091507;28;20204;-77
2022/10/10 05:59:21;;;;;;;29.70;14.30;;;;;;;-141.28;100.00;50031.88;5089648;28;20228;-77
2022/10/10 06:01:48;;;;;;;34.07;14.97;;;;;;;-141.28;100.00;50026.00;5091410;28;20684;-76
2022/10/10 06:04:15;;;;;;;29.47;15.07;;;;;;;-141.28;100.00;49996.56;5090876;28;20223;-77
2022/10/10 06:06:43;;;;;;;20.33;14.40;;;;;;;-141.28;100.00;49957.31;5090806;28;20214;-77
2022/10/10 06:09:10;;;;;;;22.10;14.43;;;;;;;-141.28;100.00;49943.56;5091253;28;20195;-76
2022/10/10 06:11:40;;;;;;;20.20;13.60;;;;;;;-141.28;100.00;49890.56;5104029;28;20210;-76
2022/10/10 06:14:08;;;;;;;22.07;14.60;;;;;;;-141.28;100.00;49912.16;5099004;28;20207;-78
2022/10/10 06:16:35;;;;;;;28.23;14.50;;;;;;;-141.28;100.00;49929.81;5105523;28;20202;-78
2022/10/10 06:19:02;;;;;;;27.67;14.20;;;;;;;-141.28;100.00;49957.31;5101359;28;20734;-77
2022/10/10 06:21:30;;;;;;;17.70;13.87;;;;;;;-141.28;100.00;49986.75;5091612;28;20203;-77
2022/10/10 06:23:57;;;;;;;19.27;13.50;;;;;;;-141.28;100.00;50004.41;5101137;28;20219;-76
2022/10/10 06:26:24;;;;;;;25.90;14.67;;;;;;;-141.28;100.00;50065.25;5103084;28;20641;-76
2022/10/10 06:28:53;;;;;;;24.00;13.97;;;;;;;-141.28;100.00;50035.81;5094780;28;20204;-75
2022/10/10 06:31:20;;;;;;;27.73;13.87;;;;;;;-141.28;100.00;50067.22;5095173;28;20204;-76
2022/10/10 06:33:48;;;;;;;21.57;13.50;;;;;;;-141.28;100.00;50071.13;5083856;28;20203;-75
2022/10/10 06:36:16;;;;;;;22.90;14.10;;;;;;;-141.28;100.00;50147.69;5084442;28;20220;-80
2022/10/10 06:38:45;;;;;;;21.90;14.93;;;;;;;-141.28;100.00;50228.16;5078690;28;20211;-76
2022/10/10 06:41:12;;;;;;;23.30;14.03;;;;;;;-141.28;100.00;50198.72;5094534;28;20203;-76
2022/10/10 06:43:41;;;;;;;23.57;14.77;;;;;;;-141.28;100.00;50232.06;5094496;28;20204;-76
2022/10/10 06:46:10;;;;;;;18.37;13.53;;;;;;;-141.28;100.00;50237.97;5093878;28;20231;-76
2022/10/10 06:48:37;;;;;;;21.27;13.50;;;;;;;-141.28;100.00;50208.53;5094407;28;20207;-75
2022/10/10 06:51:07;;;;;;;23.03;13.67;;;;;;;-141.28;100.00;50183.00;5094713;28;20677;-77
2022/10/10 06:53:39;;;;;;;24.87;13.70;;;;;;;-141.28;100.00;50169.28;5088347;28;20211;-78
2022/10/10 06:56:19;;;;;;;20.03;14.07;;;;;;;-141.28;100.00;50210.47;5105877;28;20217;-78
2022/10/10 06:58:48;;;;;;;21.20;13.67;;;;;;;-141.28;100.00;50230.13;5084491;28;20231;-78
2022/10/10 07:01:19;;;;;;;22.90;13.40;;;;;;;-141.28;100.00;50118.25;5091578;28;20210;-76
2022/10/10 07:03:46;;;;;;;22.73;12.37;;;;;;;-141.28;100.00;50008.34;5096098;28;20206;-75
2022/10/10 07:06:14;;;;;;;20.10;12.43;;;;;;;-141.28;100.00;49971.03;5102894;28;20257;-76
2022/10/10 07:08:41;;;;;;;15.80;12.73;;;;;;;-141.28;100.00;50016.19;5103883;28;20212;-75
2022/10/10 07:11:10;;;;;;;15.77;12.17;;;;;;;-141.28;100.00;50043.66;5096780;28;20212;-77
2022/10/10 07:13:38;;;;;;;18.67;12.17;;;;;;;-141.28;100.00;49980.84;5091811;28;20206;-75
2022/10/10 07:16:08;;;;;;;21.97;11.07;;;;;;;-141.28;100.00;50004.41;5083136;28;20200;-77
2022/10/10 07:18:37;;;;;;;16.77;11.00;;;;;;;-141.28;100.00;50055.44;5090935;28;20666;-77
2022/10/10 07:21:05;;;;;;;16.20;11.00;;;;;;;-141.28;100.00;50067.22;5094199;28;20290;-77
2022/10/10 07:23:32;;;;;;;24.53;10.80;;;;;;;-141.28;100.00;50149.63;5083025;28;20187;-77
2022/10/10 07:26:01;;;;;;;15.50;11.17;;;;;;;-141.28;100.00;50202.63;5094022;28;20627;-77
2022/10/10 07:28:29;;;;;;;21.73;11.23;;;;;;;-141.28;100.00;50283.09;5093771;28;20645;-76
2022/10/10 07:31:01;;;;;;;18.10;10.80;;;;;;;-141.28;100.00;50328.25;5093205;28;20682;-77
2022/10/10 07:33:31;;;;;;;25.03;10.63;;;;;;;-141.28;100.00;50459.75;5092726;28;20250;-76
2022/10/10 07:36:03;;;;;;;31.17;11.07;;;;;;;-141.28;100.00;50573.59;5090345;28;20204;-78
2022/10/10 07:38:31;;;;;;;17.90;10.43;;;;;;;-141.28;100.00;50569.69;5091514;28;20208;-76
2022/10/10 07:40:58;;;;;;;22.57;10.50;;;;;;;-141.28;100.00;50557.91;5106549;28;20231;-77
2022/10/10 07:43:25;;;;;;;19.87;9.37;;;;;;;-141.28;100.00;50624.63;5094587;28;20213;-75
2022/10/10 07:45:52;;;;;;;18.33;10.30;;;;;;;-141.28;100.00;50616.78;5097300;27;20235;-78
2022/10/10 07:48:19;;;;;;;31.40;10.67;;;;;;;-141.28;100.00;50561.81;5073747;28;20208;-75
2022/10/10 07:50:46;;;;;;;16.97;10.13;;;;;;;-141.28;100.00;50561.81;5081980;28;20690;-77
2022/10/10 07:53:14;;;;;;;17.77;9.40;;;;;;;-141.28;100.00;50585.38;5092682;28;20204;-79
2022/10/10 07:55:43;;;;;;;21.83;9.60;;;;;;;-141.28;100.00;50585.38;5092966;28;20226;-77
2022/10/10 07:58:11;;;;;;;26.57;10.03;;;;;;;-141.28;100.00;50569.69;5092535;28;20292;-76
2022/10/10 08:00:40;;;;;;;14.97;9.20;;;;;;;-141.28;100.00;50538.28;5092802;28;20253;-76
2022/10/10 08:03:09;;;;;;;16.70;10.43;;;;;;;-141.28;100.00;50585.38;5092530;28;20211;-78
2022/10/10 08:05:39;;;;;;;20.00;9.57;;;;;;;-141.28;100.00;50644.28;5092031;28;20245;-76
2022/10/10 08:08:06;;;;;;;15.80;9.30;;;;;;;-141.28;100.00;50624.63;5092683;28;20203;-77
2022/10/10 08:10:35;;;;;;;18.63;9.03;;;;;;;-141.28;100.00;50669.78;5092125;28;20196;-77
2022/10/10 08:13:02;;;;;;;16.67;9.50;;;;;;;-141.28;100.00;50648.19;5092674;28;20204;-76
2022/10/10 08:15:29;;;;;;;14.13;9.43;;;;;;;-141.28;100.00;50591.28;5083872;28;20229;-77
2022/10/10 08:17:57;;;;;;;21.93;10.00;;;;;;;-141.28;100.00;50597.16;5090509;28;20211;-77
2022/10/10 08:20:24;;;;;;;17.27;9.63;;;;;;;-141.28;100.00;50659.97;5092625;28;20310;-76
2022/10/10 08:22:52;;;;;;;23.43;9.23;;;;;;;-141.28;100.00;50730.66;5090727;28;20261;-76
2022/10/10 08:25:19;;;;;;;22.13;9.53;;;;;;;-141.28;100.00;50777.75;5078383;28;20242;-75
2022/10/10 08:27:48;;;;;;;15.00;8.10;;;;;;;-141.28;100.00;50936.75;5093640;28;20265;-76
2022/10/10 08:30:15;;;;;;;15.80;8.63;;;;;;;-141.28;100.00;51089.91;5091951;28;20211;-76
2022/10/10 08:32:42;;;;;;;12.63;8.33;;;;;;;-141.28;100.00;51109.53;5079823;28;20253;-76
2022/10/10 08:35:09;;;;;;;17.30;10.00;;;;;;;-141.28;100.00;51170.38;5091465;28;20253;-78
2022/10/10 08:37:36;;;;;;;19.80;10.23;;;;;;;-141.28;100.00;51152.72;5092013;28;20212;-78
2022/10/10 08:40:04;;;;;;;17.67;11.17;;;;;;;-141.28;100.00;51266.59;5091970;28;20231;-76
2022/10/10 08:42:38;;;;;;;17.53;8.47;;;;;;;-141.28;100.00;51331.38;5097169;28;20203;-77
2022/10/10 08:45:13;;;;;;;19.87;9.20;;;;;;;-141.28;100.00;51480.59;5090862;28;20701;-77
2022/10/10 08:47:47;;;;;;;17.90;8.70;;;;;;;-141.28;100.00;51618.03;5081881;28;20207;-77
2022/10/10 08:50:19;;;;;;;11.13;7.53;;;;;;;-141.28;100.00;51763.34;5078296;28;20727;-78
2022/10/10 08:52:50;;;;;;;13.53;8.00;;;;;;;-141.28;100.00;51896.88;5091931;28;20292;-78
2022/10/10 08:55:22;;;;;;;15.07;7.70;;;;;;;-141.28;100.00;51997.03;5078627;28;20199;-78
2022/10/10 08:57:55;;;;;;;14.63;7.80;;;;;;;-141.28;100.00;52002.91;5088781;28;20199;-77
2022/10/10 09:00:28;;;;;;;19.13;8.67;;;;;;;-141.28;100.00;52006.84;5094432;28;20208;-77
2022/10/10 09:02:56;;;;;;;15.40;8.07;;;;;;;-141.28;100.00;52126.63;5088212;28;20619;-75
2022/10/10 09:05:38;;;;;;;11.67;7.40;;;;;;;-141.28;100.00;52191.44;5091494;28;20724;-75
2022/10/10 09:08:39;;;;;;;20.33;7.10;;;;;;;-141.28;100.00;52340.69;5091021;28;20272;-77
2022/10/10 09:11:17;;;;;;;11.80;6.97;;;;;;;-141.28;100.00;52321.06;5058245;28;20256;-76
2022/10/10 09:13:53;;;;;;;10.27;6.90;;;;;;;-141.28;100.00;52383.91;5081843;28;20207;-76
2022/10/10 09:16:29;;;;;;;10.77;6.37;;;;;;;-141.28;100.00;52368.19;5088860;28;20632;-75
2022/10/10 09:19:05;;;;;;;14.03;6.90;;;;;;;-141.28;100.00;52376.06;5091726;28;20637;-75
2022/10/10 09:21:35;;;;;;;15.20;5.70;;;;;;;-141.28;100.00;52450.69;5081608;28;20253;-76
2022/10/10 09:24:09;;;;;;;11.80;6.10;;;;;;;-141.28;100.00;52399.63;5091307;28;20678;-76
2022/10/10 09:26:42;;;;;;;18.20;6.40;;;;;;;-141.28;100.00;52395.69;5096086;28;20252;-76
2022/10/10 09:29:25;;;;;;;10.07;5.97;;;;;;;-141.28;100.00;52460.50;5110789;28;20203;-78
2022/10/10 09:31:58;;;;;;;8.43;5.47;;;;;;;-141.28;100.00;52344.63;5070353;28;20208;-76
2022/10/10 09:34:37;;;;;;;14.73;6.60;;;;;;;-141.28;100.00;52356.41;5082802;28;20293;-76
2022/10/10 09:37:14;;;;;;;11.37;5.40;;;;;;;-141.28;100.00;52411.41;5087789;28;20196;-77
2022/10/10 09:39:50;;;;;;;10.63;5.73;;;;;;;-141.28;100.00;52407.47;5072612;28;20240;-78
2022/10/10 09:42:21;;;;;;;11.53;5.73;;;;;;;-141.28;100.00;52433.00;5084490;28;20210;-76
2022/10/10 09:44:49;;;;;;;12.87;5.83;;;;;;;-141.28;100.00;52376.06;5091253;28;20203;-77
2022/10/10 09:47:18;;;;;;;11.60;6.20;;;;;;;-141.28;100.00;52321.06;5081666;28;20288;-77
2022/10/10 09:49:46;;;;;;;8.40;5.83;;;;;;;-141.28;100.00;52305.34;5083869;28;20282;-77
2022/10/10 09:52:25;;;;;;;14.73;5.83;;;;;;;-141.28;100.00;52352.47;5091218;28;20195;-78
2022/10/10 09:54:58;;;;;;;10.07;5.80;;;;;;;-141.28;100.00;52317.13;5091834;28;20210;-78
2022/10/10 09:57:29;;;;;;;14.20;5.90;;;;;;;-141.28;100.00;52364.25;5089709;28;20670;-76
2022/10/10 09:59:57;;;;;;;14.10;8.57;;;;;;;-141.28;100.00;52262.13;5088670;28;20231;-77
2022/10/10 10:02:27;;;;;;;19.70;7.17;;;;;;;-141.28;100.00;52301.41;5090321;28;20257;-76
2022/10/10 10:04:55;;;;;;;13.67;6.77;;;;;;;-141.28;100.00;52297.50;5108058;28;20199;-77
2022/10/10 10:07:28;;;;;;;12.00;5.33;;;;;;;-141.28;100.00;52305.34;5095010;28;20203;-76
2022/10/10 10:09:58;;;;;;;15.57;5.97;;;;;;;-141.28;100.00;52262.13;5081858;28;20593;-77
2022/10/10 10:12:28;;;;;;;15.20;6.10;;;;;;;-141.28;100.00;52325.00;5088578;28;20194;-79
2022/10/10 10:15:00;;;;;;;7.23;5.37;;;;;;;-141.28;100.00;52281.78;5097763;28;20250;-76
2022/10/10 10:17:29;;;;;;;8.90;5.23;;;;;;;-141.28;100.00;52258.22;5090851;28;20208;-76
2022/10/10 10:19:57;;;;;;;8.43;5.33;;;;;;;-141.28;100.00;52238.56;5095194;28;20265;-77
2022/10/10 10:22:27;;;;;;;11.03;5.30;;;;;;;-141.28;100.00;52250.34;5094157;28;20203;-75
2022/10/10 10:24:54;;;;;;;12.97;5.67;;;;;;;-141.28;100.00;52250.34;5094558;28;20223;-77
2022/10/10 10:27:24;;;;;;;16.77;5.63;;;;;;;-141.28;100.00;52234.66;5095569;28;20579;-78
2022/10/10 10:29:52;;;;;;;9.47;5.30;;;;;;;-141.28;100.00;52273.94;5095372;28;20211;-76
2022/10/10 10:32:33;;;;;;;9.33;5.77;;;;;;;-141.28;100.00;52279.81;5094356;28;20199;-76
2022/10/10 10:35:27;;;;;;;14.83;6.10;;;;;;;-141.28;100.00;52232.69;5094498;28;20203;-77
2022/10/10 10:38:11;;;;;;;10.43;5.67;;;;;;;-141.28;100.00;52238.56;5095327;28;20349;-77
2022/10/10 10:40:41;;;;;;;10.10;5.53;;;;;;;-141.28;100.00;52187.50;5093659;28;20234;-75
2022/10/10 10:43:30;;;;;;;6.70;5.23;;;;;;;-141.28;100.00;52132.53;5094185;28;20199;-75
2022/10/10 10:46:10;;;;;;;10.50;5.40;;;;;;;-141.28;100.00;52179.66;5092135;28;20235;-79
2022/10/10 10:48:45;;;;;;;8.73;5.13;;;;;;;-141.28;100.00;52207.16;5095684;28;20215;-76
2022/10/10 10:51:37;;;;;;;7.73;5.20;;;;;;;-141.28;100.00;52203.22;5084775;28;20211;-76
2022/10/10 10:54:17;;;;;;;9.70;5.40;;;;;;;-141.28;100.00;52128.59;5084161;28;20219;-76
2022/10/10 10:57:02;;;;;;;22.47;6.07;;;;;;;-141.28;100.00;52144.31;5102301;28;20257;-77
2022/10/10 10:59:42;;;;;;;11.33;5.40;;;;;;;-141.28;100.00;52132.53;5094330;28;20291;-78
2022/10/10 11:02:36;;;;;;;20.27;6.37;;;;;;;-141.28;100.00;52136.44;5094784;28;20234;-77
2022/10/10 11:05:38;;;;;;;4.97;4.33;;;;;;;-141.28;100.00;52183.59;5094329;28;20670;-77
2022/10/10 11:08:34;;;;;;;9.43;5.10;;;;;;;-141.28;100.00;52163.94;5092894;28;20211;-77
2022/10/10 11:11:14;;;;;;;14.20;5.67;;;;;;;-141.28;100.00;52140.38;5106603;28;20230;-79